Time;durP1;ratioP1;P1;durP2;ratioP2;P2;SDS_P1;SDS_P2;PMS_P1;PMS_P2;Temp;Humidity;BMP_temperature;BMP_pressure;BME280_temperature;BME280_humidity;BME280_pressure;Samples;Min_cycle;Max_cycle;Signal;HPM_P1;HPM_P2
2020/12/23 00:02:00;;;;;;;2.43;1.80;;;15.40;55.20;;;;;;5036168;28;20460;-85
2020/12/23 00:04:27;;;;;;;2.00;1.90;;;15.20;54.80;;;;;;5036829;28;20441;-85
2020/12/23 00:06:55;;;;;;;2.33;1.83;;;15.40;54.50;;;;;;5036494;28;20540;-84
2020/12/23 00:09:22;;;;;;;4.57;1.90;;;15.60;54.60;;;;;;5037174;28;20473;-85
2020/12/23 00:11:52;;;;;;;2.13;2.00;;;15.90;53.20;;;;;;5040805;28;20456;-84
2020/12/23 00:14:19;;;;;;;1.80;1.80;;;16.20;52.60;;;;;;5042461;28;20406;-84
2020/12/23 00:16:46;;;;;;;1.60;1.50;;;16.50;51.80;;;;;;5042178;28;20437;-84
2020/12/23 00:19:13;;;;;;;2.27;2.13;;;16.70;51.20;;;;;;5042470;28;20472;-84
2020/12/23 00:21:39;;;;;;;1.97;1.80;;;16.90;50.70;;;;;;5040880;28;20502;-84
2020/12/23 00:24:06;;;;;;;2.40;1.97;;;17.10;50.00;;;;;;5041917;28;20468;-84
2020/12/23 00:26:32;;;;;;;2.53;2.20;;;17.10;50.10;;;;;;5038829;28;20495;-84
2020/12/23 00:28:59;;;;;;;1.90;1.80;;;17.00;50.30;;;;;;5040573;28;20535;-84
2020/12/23 00:31:25;;;;;;;2.00;1.80;;;16.90;50.50;;;;;;5056812;28;20472;-84
2020/12/23 00:33:54;;;;;;;2.10;1.80;;;16.40;51.80;;;;;;5057868;28;20480;-85
2020/12/23 00:36:21;;;;;;;1.83;1.80;;;16.10;52.60;;;;;;5057730;28;20451;-85
2020/12/23 00:38:48;;;;;;;1.80;1.80;;;15.90;53.50;;;;;;5058368;28;20468;-86
2020/12/23 00:41:14;;;;;;;1.73;1.70;;;15.80;53.60;;;;;;5058889;28;20457;-85
2020/12/23 00:43:41;;;;;;;5.33;2.20;;;15.80;53.70;;;;;;5058832;28;20437;-85
2020/12/23 00:46:11;;;;;;;2.10;2.00;;;15.70;53.60;;;;;;5045837;28;20445;-85
2020/12/23 00:48:38;;;;;;;2.37;2.20;;;15.50;54.60;;;;;;5038113;28;20491;-85
2020/12/23 00:51:10;;;;;;;2.13;1.97;;;15.60;54.20;;;;;;5041958;28;20437;-85
2020/12/23 00:53:36;;;;;;;1.80;1.70;;;15.50;54.40;;;;;;5051409;28;20505;-85
2020/12/23 00:56:03;;;;;;;4.60;1.97;;;15.70;53.90;;;;;;5054246;28;20445;-85
2020/12/23 00:58:30;;;;;;;2.27;2.07;;;15.80;53.60;;;;;;5055240;28;20465;-85
2020/12/23 01:00:57;;;;;;;2.27;2.10;;;15.90;53.20;;;;;;5058338;28;20445;-85
2020/12/23 01:03:23;;;;;;;1.93;1.63;;;15.60;53.80;;;;;;5056949;28;20456;-85
2020/12/23 01:05:50;;;;;;;2.80;1.80;;;15.50;54.50;;;;;;5038719;28;20445;-85
2020/12/23 01:08:18;;;;;;;4.00;1.90;;;15.40;54.50;;;;;;5035834;28;20473;-84
2020/12/23 01:10:45;;;;;;;1.83;1.67;;;15.30;54.40;;;;;;5043225;28;20433;-84
2020/12/23 01:13:12;;;;;;;1.83;1.80;;;15.70;53.90;;;;;;5039912;28;20442;-84
2020/12/23 01:15:38;;;;;;;1.80;1.70;;;15.90;52.90;;;;;;5038437;28;20461;-84
2020/12/23 01:18:05;;;;;;;2.00;1.80;;;16.20;52.30;;;;;;5037920;28;20476;-84
2020/12/23 01:20:31;;;;;;;1.87;1.80;;;16.40;51.90;;;;;;5037194;28;20566;-84
2020/12/23 01:22:58;;;;;;;2.93;1.90;;;16.40;51.80;;;;;;5036700;28;20507;-84
2020/12/23 01:25:25;;;;;;;1.70;1.70;;;16.20;52.20;;;;;;5037260;28;21089;-84
2020/12/23 01:27:52;;;;;;;1.80;1.70;;;16.10;52.50;;;;;;5037667;28;20472;-85
2020/12/23 01:30:18;;;;;;;1.90;1.80;;;16.00;52.90;;;;;;5037219;28;20539;-85
2020/12/23 01:32:45;;;;;;;1.90;1.80;;;16.00;52.50;;;;;;5035892;28;20472;-85
2020/12/23 01:35:11;;;;;;;1.90;1.80;;;15.90;52.80;;;;;;5041360;28;20464;-85
2020/12/23 01:37:38;;;;;;;1.80;1.73;;;15.60;53.80;;;;;;5050409;28;20471;-85
2020/12/23 01:40:05;;;;;;;2.00;1.90;;;15.70;53.80;;;;;;5050104;28;20437;-84
2020/12/23 01:42:33;;;;;;;2.00;1.90;;;15.50;54.00;;;;;;5038333;28;20939;-84
2020/12/23 01:45:01;;;;;;;1.97;1.87;;;15.40;54.50;;;;;;5036091;28;20445;-84
2020/12/23 01:47:29;;;;;;;2.23;1.90;;;15.50;54.50;;;;;;5036306;28;20500;-84
2020/12/23 01:49:55;;;;;;;3.40;2.37;;;15.70;53.50;;;;;;5035941;28;20985;-84
2020/12/23 01:52:23;;;;;;;1.77;1.70;;;15.60;53.90;;;;;;5037059;28;20459;-84
2020/12/23 01:54:51;;;;;;;2.00;1.90;;;15.40;54.50;;;;;;5035549;28;20453;-84
2020/12/23 01:57:17;;;;;;;1.90;1.80;;;15.40;54.40;;;;;;5036380;28;20644;-83
2020/12/23 01:59:46;;;;;;;2.80;1.90;;;15.50;54.60;;;;;;5039595;28;20460;-83
2020/12/23 02:02:29;;;;;;;1.93;1.87;;;15.50;54.50;;;;;;5038974;28;20495;-83
2020/12/23 02:04:57;;;;;;;2.80;2.17;;;15.60;54.30;;;;;;5038159;28;20953;-82
2020/12/23 02:07:25;;;;;;;1.60;1.50;;;16.30;52.20;;;;;;5038584;28;20464;-83
2020/12/23 02:09:53;;;;;;;1.97;1.90;;;16.70;51.00;;;;;;5036948;28;20488;-83
2020/12/23 02:12:20;;;;;;;5.20;2.77;;;16.90;50.60;;;;;;5037951;28;20429;-82
2020/12/23 02:14:47;;;;;;;1.90;1.80;;;17.00;50.20;;;;;;5037766;28;20471;-83
2020/12/23 02:17:15;;;;;;;2.07;1.90;;;17.20;49.80;;;;;;5038794;28;20822;-83
2020/12/23 02:19:50;;;;;;;2.33;1.93;;;17.20;49.60;;;;;;5038002;28;20442;-83
2020/12/23 02:22:20;;;;;;;3.07;2.00;;;17.30;49.40;;;;;;5041663;28;20432;-83
2020/12/23 02:24:49;;;;;;;4.13;2.00;;;17.40;49.10;;;;;;5048056;28;20440;-83
2020/12/23 02:27:15;;;;;;;2.70;2.00;;;17.40;49.30;;;;;;5043127;28;20492;-83
2020/12/23 02:29:43;;;;;;;1.73;1.63;;;17.60;48.70;;;;;;5050640;28;20488;-83
2020/12/23 02:32:10;;;;;;;5.07;1.80;;;17.70;48.40;;;;;;5042270;28;20480;-83
2020/12/23 02:34:37;;;;;;;2.37;2.00;;;17.80;48.30;;;;;;5036504;28;20456;-83
2020/12/23 02:37:05;;;;;;;4.70;1.80;;;17.80;48.90;;;;;;5037083;28;20465;-83
2020/12/23 02:39:33;;;;;;;3.23;1.50;;;17.70;48.40;;;;;;5037161;28;20993;-83
2020/12/23 02:42:01;;;;;;;3.70;1.70;;;17.80;48.00;;;;;;5037271;28;20484;-83
2020/12/23 02:44:28;;;;;;;1.90;1.87;;;18.00;47.80;;;;;;5036804;28;20445;-83
2020/12/23 02:46:57;;;;;;;1.80;1.70;;;18.10;47.40;;;;;;5037444;28;20465;-83
2020/12/23 02:49:24;;;;;;;1.70;1.60;;;17.90;47.60;;;;;;5037088;28;20866;-83
2020/12/23 02:51:50;;;;;;;3.13;2.13;;;17.90;47.70;;;;;;5036659;28;20456;-83
2020/12/23 02:54:17;;;;;;;2.23;2.07;;;17.80;47.70;;;;;;5040797;28;20453;-83
2020/12/23 02:56:43;;;;;;;1.67;1.60;;;17.50;48.50;;;;;;5040632;28;20432;-83
2020/12/23 02:59:11;;;;;;;2.90;2.40;;;17.50;48.50;;;;;;5041102;28;20446;-83
2020/12/23 03:01:38;;;;;;;3.43;2.33;;;17.40;48.80;;;;;;5040497;28;20449;-83
2020/12/23 03:04:04;;;;;;;2.60;2.40;;;17.40;48.80;;;;;;5041614;28;20453;-83
2020/12/23 03:06:31;;;;;;;3.93;2.50;;;17.50;48.50;;;;;;5041166;28;20436;-83
2020/12/23 03:08:58;;;;;;;2.40;2.10;;;17.60;48.30;;;;;;5040076;28;20477;-83
2020/12/23 03:11:25;;;;;;;5.13;2.00;;;17.70;47.90;;;;;;5040096;28;20950;-82
2020/12/23 03:13:51;;;;;;;2.20;2.07;;;17.90;47.80;;;;;;5040507;28;20456;-83
2020/12/23 03:16:19;;;;;;;2.47;2.30;;;17.90;47.70;;;;;;5040926;28;20452;-83
2020/12/23 03:18:45;;;;;;;3.03;2.80;;;17.70;47.90;;;;;;5039905;28;20467;-83
2020/12/23 03:21:12;;;;;;;3.20;2.80;;;17.80;47.70;;;;;;5039832;28;20452;-83
2020/12/23 03:23:38;;;;;;;1.93;1.83;;;17.80;47.70;;;;;;5040057;28;20523;-83
2020/12/23 03:26:05;;;;;;;1.80;1.70;;;17.80;47.50;;;;;;5040302;28;20459;-83
2020/12/23 03:28:33;;;;;;;3.00;2.10;;;17.80;47.50;;;;;;5041290;28;20461;-83
2020/12/23 03:30:59;;;;;;;2.40;1.97;;;17.80;47.40;;;;;;5042703;28;20440;-83
2020/12/23 03:33:27;;;;;;;3.80;2.20;;;17.50;48.10;;;;;;5041573;28;20449;-83
2020/12/23 03:35:54;;;;;;;2.07;1.93;;;17.60;47.90;;;;;;5040993;28;20453;-83
2020/12/23 03:38:21;;;;;;;2.20;2.00;;;17.90;47.40;;;;;;5040517;28;20489;-83
2020/12/23 03:40:47;;;;;;;2.00;1.90;;;17.90;47.20;;;;;;5040135;28;20468;-83
2020/12/23 03:43:14;;;;;;;2.30;2.10;;;18.10;46.90;;;;;;5041128;28;20480;-83
2020/12/23 03:45:41;;;;;;;7.00;2.00;;;18.10;46.80;;;;;;5040553;28;20492;-83
2020/12/23 03:48:07;;;;;;;2.00;1.70;;;18.20;46.80;;;;;;5042282;28;20529;-83
2020/12/23 03:50:34;;;;;;;2.03;1.87;;;18.20;46.70;;;;;;5054096;28;20477;-83
2020/12/23 03:53:01;;;;;;;2.27;2.07;;;18.20;46.70;;;;;;5054867;28;20452;-83
2020/12/23 03:55:28;;;;;;;2.13;1.90;;;18.00;46.90;;;;;;5054914;28;20445;-83
2020/12/23 03:57:54;;;;;;;2.63;1.90;;;18.00;47.00;;;;;;5054757;28;20501;-83
2020/12/23 04:00:21;;;;;;;2.30;1.90;;;18.10;47.00;;;;;;5054957;28;20441;-83
2020/12/23 04:02:47;;;;;;;10.37;2.00;;;17.90;47.40;;;;;;5054606;28;20554;-83
2020/12/23 04:05:14;;;;;;;2.37;2.00;;;17.60;48.10;;;;;;5052190;28;20457;-83
2020/12/23 04:07:41;;;;;;;6.70;2.40;;;17.60;48.00;;;;;;5050553;28;20536;-83
2020/12/23 04:10:09;;;;;;;2.30;2.10;;;17.60;47.90;;;;;;5039474;28;20469;-83
2020/12/23 04:12:36;;;;;;;6.43;2.37;;;17.50;48.10;;;;;;5038203;28;20503;-83
2020/12/23 04:15:05;;;;;;;3.50;2.70;;;17.60;48.30;;;;;;5039294;28;20479;-83
2020/12/23 04:17:31;;;;;;;3.77;1.93;;;17.50;48.50;;;;;;5039500;28;21060;-83
2020/12/23 04:19:58;;;;;;;4.33;2.40;;;17.40;49.10;;;;;;5039985;28;20551;-83
2020/12/23 04:22:28;;;;;;;2.70;2.10;;;17.40;49.20;;;;;;5039995;28;20437;-83
2020/12/23 04:24:56;;;;;;;12.10;5.30;;;17.30;49.20;;;;;;5040396;28;20432;-83
2020/12/23 04:27:22;;;;;;;3.67;2.77;;;17.20;49.60;;;;;;5039129;28;20591;-83
2020/12/23 04:29:49;;;;;;;4.73;3.00;;;17.20;49.50;;;;;;5038648;28;20574;-83
2020/12/23 04:32:15;;;;;;;5.20;3.60;;;17.20;49.50;;;;;;5038452;28;20453;-83
2020/12/23 04:34:42;;;;;;;4.10;2.60;;;17.30;49.20;;;;;;5038147;28;20449;-83
2020/12/23 04:37:08;;;;;;;2.90;2.20;;;17.40;49.10;;;;;;5039910;28;20464;-83
2020/12/23 04:39:35;;;;;;;16.90;2.60;;;17.70;48.60;;;;;;5042527;28;20445;-83
2020/12/23 04:42:02;;;;;;;3.60;2.20;;;17.70;48.80;;;;;;5042482;28;20449;-83
2020/12/23 04:44:30;;;;;;;2.77;2.10;;;17.50;48.90;;;;;;5041120;28;20454;-83
2020/12/23 04:46:57;;;;;;;2.93;2.10;;;17.40;49.30;;;;;;5038236;28;20888;-83
2020/12/23 04:49:24;;;;;;;13.20;2.53;;;17.40;49.30;;;;;;5038916;28;20472;-83
2020/12/23 04:51:53;;;;;;;2.70;2.57;;;17.40;49.30;;;;;;5040505;28;20449;-83
2020/12/23 04:54:20;;;;;;;4.47;2.40;;;17.30;49.40;;;;;;5039206;28;20507;-83
2020/12/23 04:56:47;;;;;;;2.90;2.17;;;17.20;49.70;;;;;;5045483;28;20445;-83
2020/12/23 04:59:15;;;;;;;2.27;2.00;;;17.40;49.30;;;;;;5039740;28;20426;-83
2020/12/23 05:01:42;;;;;;;3.87;2.30;;;17.50;49.40;;;;;;5038531;28;20449;-83
2020/12/23 05:04:09;;;;;;;2.80;2.40;;;17.70;48.80;;;;;;5040352;28;20449;-83
2020/12/23 05:06:36;;;;;;;2.70;2.37;;;17.70;48.70;;;;;;5038855;28;20436;-83
2020/12/23 05:09:04;;;;;;;4.33;2.93;;;17.70;48.70;;;;;;5053795;28;20500;-83
2020/12/23 05:11:33;;;;;;;3.00;2.60;;;17.80;48.60;;;;;;5049734;28;20449;-83
2020/12/23 05:14:04;;;;;;;3.77;3.13;;;17.70;49.10;;;;;;5038834;28;20514;-83
2020/12/23 05:16:33;;;;;;;4.57;2.83;;;17.50;48.70;;;;;;5038453;28;20434;-83
2020/12/23 05:19:01;;;;;;;2.70;2.00;;;17.40;48.90;;;;;;5039888;28;20473;-83
2020/12/23 05:21:28;;;;;;;2.23;2.03;;;17.50;48.90;;;;;;5053384;28;20433;-83
2020/12/23 05:23:57;;;;;;;2.47;2.27;;;17.60;48.60;;;;;;5057687;28;20460;-83
2020/12/23 05:26:25;;;;;;;2.27;2.00;;;17.70;48.30;;;;;;5056659;28;20452;-83
2020/12/23 05:28:53;;;;;;;2.33;1.80;;;17.70;48.20;;;;;;5056865;28;20465;-83
2020/12/23 05:31:20;;;;;;;2.87;2.20;;;17.80;48.30;;;;;;5057568;28;20483;-83
2020/12/23 05:33:49;;;;;;;2.73;2.03;;;17.80;48.20;;;;;;5057591;28;20472;-83
2020/12/23 05:36:17;;;;;;;2.00;1.90;;;17.80;48.00;;;;;;5057503;28;20477;-83
2020/12/23 05:38:45;;;;;;;2.43;2.03;;;17.80;48.00;;;;;;5057483;28;20826;-83
2020/12/23 05:41:14;;;;;;;2.00;1.90;;;17.90;48.00;;;;;;5057222;28;20442;-83
2020/12/23 05:43:42;;;;;;;2.10;1.90;;;17.80;47.80;;;;;;5054768;28;20445;-83
2020/12/23 05:46:10;;;;;;;2.77;2.07;;;17.80;47.70;;;;;;5056352;28;20417;-83
2020/12/23 05:48:40;;;;;;;2.83;2.00;;;17.70;47.90;;;;;;5056535;28;20454;-83
2020/12/23 05:51:09;;;;;;;2.50;1.80;;;17.60;48.20;;;;;;5053536;28;20442;-84
2020/12/23 05:53:37;;;;;;;1.97;1.87;;;17.70;48.10;;;;;;5047923;28;20449;-84
2020/12/23 05:56:05;;;;;;;4.80;2.13;;;17.60;47.80;;;;;;5039580;28;20510;-83
2020/12/23 05:58:34;;;;;;;2.20;2.03;;;17.60;47.90;;;;;;5047117;28;20463;-83
2020/12/23 06:01:04;;;;;;;2.20;2.00;;;17.60;48.00;;;;;;5056266;28;20421;-83
2020/12/23 06:03:46;;;;;;;2.70;2.20;;;17.60;47.80;;;;;;5056010;28;20430;-83
2020/12/23 06:06:13;;;;;;;3.47;2.23;;;17.40;48.70;;;;;;5051134;28;20422;-84
2020/12/23 06:08:41;;;;;;;3.40;2.27;;;17.20;49.00;;;;;;5037724;28;20461;-84
2020/12/23 06:11:29;;;;;;;3.60;2.90;;;17.20;49.10;;;;;;5038465;28;20507;-84
2020/12/23 06:14:17;;;;;;;4.20;3.30;;;17.20;48.60;;;;;;5026830;28;20514;-83
2020/12/23 06:16:46;;;;;;;4.63;2.57;;;17.10;49.10;;;;;;5037752;28;20966;-83
2020/12/23 06:19:22;;;;;;;2.27;2.07;;;17.00;48.90;;;;;;5037429;28;20452;-83
2020/12/23 06:21:51;;;;;;;3.87;3.00;;;17.00;49.00;;;;;;5036662;28;20487;-83
2020/12/23 06:24:18;;;;;;;2.70;2.30;;;17.10;49.00;;;;;;5038211;28;20807;-84
2020/12/23 06:26:46;;;;;;;3.57;2.90;;;17.10;49.30;;;;;;5037513;28;20857;-83
2020/12/23 06:29:14;;;;;;;3.30;3.10;;;17.00;49.00;;;;;;5041369;28;20476;-83
2020/12/23 06:31:43;;;;;;;3.20;3.00;;;17.00;49.00;;;;;;5041641;28;20457;-83
2020/12/23 06:34:14;;;;;;;8.73;2.90;;;16.90;49.00;;;;;;5040743;28;20452;-84
2020/12/23 06:36:40;;;;;;;5.97;2.90;;;16.90;49.10;;;;;;5042238;28;20429;-83
2020/12/23 06:39:32;;;;;;;3.03;2.90;;;17.00;49.00;;;;;;5041575;28;20444;-83
2020/12/23 06:42:27;;;;;;;6.03;3.13;;;17.00;49.00;;;;;;5022577;28;20862;-83
2020/12/23 06:45:05;;;;;;;4.07;2.67;;;17.10;48.90;;;;;;5041878;28;20835;-83
2020/12/23 06:47:33;;;;;;;4.33;2.73;;;17.20;49.50;;;;;;5041158;28;20523;-83
2020/12/23 06:50:01;;;;;;;3.33;3.13;;;17.40;48.80;;;;;;5040892;28;20492;-84
2020/12/23 06:52:44;;;;;;;3.00;2.80;;;17.60;48.30;;;;;;5040855;28;20502;-84
2020/12/23 06:55:13;;;;;;;2.50;2.40;;;17.70;48.10;;;;;;5040548;28;20456;-84
2020/12/23 06:57:55;;;;;;;2.80;2.43;;;17.90;47.90;;;;;;5040827;28;20483;-84
2020/12/23 07:00:41;;;;;;;2.60;2.40;;;18.10;47.50;;;;;;5040210;28;20457;-83
2020/12/23 07:03:12;;;;;;;2.63;2.43;;;18.20;47.10;;;;;;5040538;28;20437;-83
2020/12/23 07:05:46;;;;;;;2.90;2.53;;;18.20;47.20;;;;;;5040801;28;20436;-83
2020/12/23 07:08:17;;;;;;;2.53;2.33;;;18.30;47.10;;;;;;5040268;28;20468;-84
2020/12/23 07:10:50;;;;;;;4.70;3.73;;;18.40;46.90;;;;;;5040249;28;20532;-83
2020/12/23 07:13:19;;;;;;;2.90;2.50;;;18.40;46.50;;;;;;5040371;28;20437;-83
2020/12/23 07:15:55;;;;;;;6.63;3.77;;;18.40;46.50;;;;;;5039644;28;20964;-83
2020/12/23 07:18:27;;;;;;;3.40;2.77;;;18.40;46.60;;;;;;5040025;28;20989;-83
2020/12/23 07:21:03;;;;;;;4.40;2.40;;;18.50;46.60;;;;;;5039735;28;20480;-83
2020/12/23 07:23:31;;;;;;;3.07;2.60;;;18.50;46.30;;;;;;5038973;28;21637;-83
2020/12/23 07:26:00;;;;;;;2.87;2.67;;;18.50;46.30;;;;;;5039512;28;20934;-83
2020/12/23 07:28:31;;;;;;;5.03;3.23;;;18.30;46.30;;;;;;5038418;28;20462;-84
2020/12/23 07:30:58;;;;;;;3.90;3.20;;;17.90;46.90;;;;;;5039455;28;20504;-84
2020/12/23 07:33:25;;;;;;;3.07;2.80;;;17.80;47.10;;;;;;5037886;28;20519;-83
2020/12/23 07:35:54;;;;;;;4.77;3.17;;;17.80;47.40;;;;;;5038518;28;20437;-83
2020/12/23 07:38:21;;;;;;;5.33;2.87;;;17.80;47.40;;;;;;5038070;28;20465;-84
2020/12/23 07:40:48;;;;;;;3.80;2.43;;;17.90;47.50;;;;;;5038545;28;20931;-84
2020/12/23 07:43:16;;;;;;;4.20;3.00;;;18.00;47.40;;;;;;5039253;28;20445;-83
2020/12/23 07:45:44;;;;;;;2.90;2.43;;;18.00;47.00;;;;;;5044240;28;20453;-85
2020/12/23 07:48:13;;;;;;;3.20;2.90;;;17.90;47.40;;;;;;5044779;28;20987;-83
2020/12/23 07:50:40;;;;;;;3.50;2.60;;;17.80;47.00;;;;;;5044487;28;20480;-83
2020/12/23 07:53:14;;;;;;;7.33;3.37;;;17.70;47.90;;;;;;5045690;28;20817;-84
2020/12/23 07:55:42;;;;;;;3.00;2.80;;;17.70;47.40;;;;;;5043918;28;20433;-83
2020/12/23 07:58:09;;;;;;;3.27;2.80;;;17.80;47.70;;;;;;5037793;28;20488;-84
2020/12/23 08:00:37;;;;;;;2.80;2.17;;;18.00;47.30;;;;;;5035945;28;20440;-84
2020/12/23 08:03:05;;;;;;;3.00;2.40;;;18.20;47.10;;;;;;5036309;28;20477;-85
2020/12/23 08:05:31;;;;;;;5.17;3.60;;;18.20;46.50;;;;;;5035642;28;20513;-85
2020/12/23 08:07:58;;;;;;;4.50;3.60;;;17.90;47.00;;;;;;5035231;28;21001;-85
2020/12/23 08:10:25;;;;;;;16.17;5.50;;;18.00;46.90;;;;;;5035976;28;20898;-85
2020/12/23 08:12:53;;;;;;;6.77;4.60;;;18.10;47.00;;;;;;5035783;28;20449;-85
2020/12/23 08:15:20;;;;;;;5.30;4.57;;;18.20;46.40;;;;;;5035560;28;20453;-85
2020/12/23 08:17:47;;;;;;;10.80;4.60;;;18.10;46.50;;;;;;5035592;28;20511;-85
2020/12/23 08:20:15;;;;;;;3.60;3.33;;;18.20;46.50;;;;;;5035597;28;20477;-85
2020/12/23 08:22:42;;;;;;;6.57;3.53;;;18.30;46.40;;;;;;5035388;28;20495;-85
2020/12/23 08:25:12;;;;;;;4.00;2.80;;;18.40;46.30;;;;;;5035837;28;20739;-85
2020/12/23 08:27:39;;;;;;;3.00;2.83;;;18.50;46.00;;;;;;5035423;28;20470;-85
2020/12/23 08:30:09;;;;;;;8.70;4.30;;;18.50;46.10;;;;;;5036768;28;20484;-85
2020/12/23 08:32:39;;;;;;;5.03;2.90;;;18.60;45.80;;;;;;5036019;28;20441;-85
2020/12/23 08:35:07;;;;;;;6.17;3.73;;;18.70;46.00;;;;;;5035230;28;20488;-85
2020/12/23 08:37:35;;;;;;;4.50;3.40;;;18.70;45.30;;;;;;5034943;28;20477;-85
2020/12/23 08:40:04;;;;;;;5.73;3.60;;;18.80;45.20;;;;;;5034928;28;20464;-85
2020/12/23 08:42:31;;;;;;;2.90;2.47;;;18.60;45.10;;;;;;5035529;28;20453;-85
2020/12/23 08:44:58;;;;;;;12.10;3.20;;;18.50;45.90;;;;;;5035250;28;20442;-86
2020/12/23 08:47:27;;;;;;;4.43;3.17;;;18.60;45.60;;;;;;5035030;28;20454;-85
2020/12/23 08:49:55;;;;;;;3.53;3.20;;;18.60;45.40;;;;;;5034625;28;20478;-85
2020/12/23 08:52:24;;;;;;;5.77;3.33;;;18.40;45.40;;;;;;5034624;28;20456;-85
2020/12/23 08:54:51;;;;;;;3.23;2.77;;;18.30;45.60;;;;;;5034508;28;20938;-85
2020/12/23 08:57:24;;;;;;;3.40;2.87;;;18.40;46.10;;;;;;5034432;28;20492;-85
2020/12/23 08:59:50;;;;;;;4.30;3.50;;;18.50;45.30;;;;;;5034820;28;20430;-85
2020/12/23 09:02:18;;;;;;;8.60;3.60;;;18.40;45.70;;;;;;5034763;28;20820;-85
2020/12/23 09:04:45;;;;;;;3.47;3.30;;;18.50;45.90;;;;;;5034715;28;20532;-85
2020/12/23 09:07:12;;;;;;;6.70;2.97;;;18.40;46.00;;;;;;5034498;28;20473;-85
2020/12/23 09:09:39;;;;;;;4.33;3.30;;;18.20;45.80;;;;;;5034797;28;20512;-85
2020/12/23 09:12:06;;;;;;;4.70;3.20;;;18.20;46.40;;;;;;5034115;28;20437;-85
2020/12/23 09:14:34;;;;;;;4.43;3.83;;;18.20;46.60;;;;;;5034594;28;20488;-85
2020/12/23 09:17:06;;;;;;;7.10;3.27;;;18.20;46.40;;;;;;5034465;28;20473;-85
2020/12/23 09:19:47;;;;;;;5.07;3.13;;;18.30;46.30;;;;;;5034772;28;20811;-86
2020/12/23 09:22:22;;;;;;;4.83;3.10;;;18.40;46.20;;;;;;5049528;28;20440;-85
2020/12/23 09:24:50;;;;;;;6.27;3.13;;;18.50;45.80;;;;;;5056629;28;20433;-85
2020/12/23 09:27:22;;;;;;;5.97;3.50;;;18.40;46.10;;;;;;5056341;28;20456;-85
2020/12/23 09:29:49;;;;;;;4.47;3.20;;;18.20;46.50;;;;;;5043176;28;20527;-85
2020/12/23 09:32:15;;;;;;;7.33;3.57;;;18.60;45.90;;;;;;5034341;28;20456;-85
2020/12/23 09:34:42;;;;;;;5.87;4.57;;;18.60;46.40;;;;;;5034945;28;20464;-85
2020/12/23 09:37:08;;;;;;;4.57;3.40;;;18.80;45.60;;;;;;5034614;28;20469;-85
2020/12/23 09:39:35;;;;;;;15.90;4.03;;;18.70;45.60;;;;;;5033941;28;20433;-85
2020/12/23 09:42:05;;;;;;;11.50;4.10;;;18.80;45.70;;;;;;5034044;28;20801;-85
2020/12/23 09:44:32;;;;;;;13.13;4.37;;;18.70;45.80;;;;;;5033792;28;20449;-85
2020/12/23 09:46:58;;;;;;;8.33;3.40;;;18.60;46.20;;;;;;5034083;28;21056;-85
2020/12/23 09:49:25;;;;;;;7.40;3.60;;;18.90;46.00;;;;;;5033723;28;20530;-85
2020/12/23 09:51:52;;;;;;;7.33;4.10;;;18.90;45.90;;;;;;5033822;28;20468;-85
2020/12/23 09:54:19;;;;;;;8.23;3.80;;;19.10;45.80;;;;;;5034137;28;20833;-85
2020/12/23 09:56:49;;;;;;;5.53;3.07;;;19.20;45.50;;;;;;5034423;28;20454;-85
2020/12/23 09:59:17;;;;;;;6.27;4.00;;;19.40;45.30;;;;;;5034964;28;20460;-85
2020/12/23 10:01:43;;;;;;;9.27;4.30;;;19.50;45.40;;;;;;5034046;28;20456;-84
2020/12/23 10:04:10;;;;;;;6.80;3.90;;;19.30;45.60;;;;;;5041125;28;20452;-84
2020/12/23 10:06:37;;;;;;;9.20;3.60;;;19.00;46.30;;;;;;5058086;28;20434;-84
2020/12/23 10:09:04;;;;;;;7.33;3.60;;;18.90;46.20;;;;;;5058199;28;20441;-85
2020/12/23 10:11:30;;;;;;;6.80;4.30;;;19.00;46.10;;;;;;5058008;28;20455;-84
2020/12/23 10:13:58;;;;;;;7.33;4.33;;;19.20;46.30;;;;;;5058152;28;20448;-85
2020/12/23 10:16:30;;;;;;;7.80;4.00;;;19.10;46.20;;;;;;5057297;28;20437;-85
2020/12/23 10:18:57;;;;;;;9.00;4.40;;;19.20;46.10;;;;;;5056486;28;20457;-85
2020/12/23 10:21:23;;;;;;;12.40;3.50;;;19.30;46.30;;;;;;5048199;28;20432;-85
2020/12/23 10:23:50;;;;;;;4.20;3.40;;;19.40;46.00;;;;;;5050269;28;20934;-85
2020/12/23 10:26:16;;;;;;;8.13;3.97;;;19.40;46.10;;;;;;5047763;28;20491;-85
2020/12/23 10:28:43;;;;;;;4.83;3.00;;;19.40;45.80;;;;;;5057570;28;20453;-84
2020/12/23 10:31:09;;;;;;;5.83;3.47;;;19.30;45.60;;;;;;5057821;28;20468;-84
2020/12/23 10:33:37;;;;;;;3.37;2.70;;;19.60;45.50;;;;;;5057664;28;20445;-84
2020/12/23 10:36:07;;;;;;;5.90;3.30;;;19.50;45.30;;;;;;5058018;28;20434;-85
2020/12/23 10:38:34;;;;;;;7.63;2.90;;;19.60;45.00;;;;;;5045652;28;20607;-85
2020/12/23 10:41:00;;;;;;;4.60;2.87;;;19.60;44.80;;;;;;5036884;28;20445;-86
2020/12/23 10:43:27;;;;;;;4.73;3.77;;;19.80;45.10;;;;;;5037707;28;20441;-85
2020/12/23 10:45:53;;;;;;;3.33;2.80;;;19.80;45.00;;;;;;5036163;28;20956;-85
2020/12/23 10:48:19;;;;;;;3.60;2.77;;;19.80;44.40;;;;;;5037543;28;20469;-85
2020/12/23 10:50:47;;;;;;;3.90;3.10;;;19.80;44.30;;;;;;5036821;28;20531;-85
2020/12/23 10:53:13;;;;;;;4.13;2.97;;;19.80;45.20;;;;;;5036866;28;20958;-85
2020/12/23 10:55:40;;;;;;;5.00;3.03;;;20.00;44.60;;;;;;5035918;28;20445;-85
2020/12/23 10:58:06;;;;;;;5.63;3.57;;;20.00;44.50;;;;;;5035749;28;20480;-85
2020/12/23 11:00:33;;;;;;;3.63;2.90;;;20.10;44.60;;;;;;5036107;28;20474;-85
2020/12/23 11:02:59;;;;;;;8.90;4.73;;;19.90;45.10;;;;;;5035632;28;20437;-84
2020/12/23 11:05:26;;;;;;;7.70;3.50;;;19.70;46.50;;;;;;5036292;28;20445;-84
2020/12/23 11:07:53;;;;;;;4.40;2.93;;;19.70;46.20;;;;;;5035354;28;20523;-84
2020/12/23 11:10:20;;;;;;;6.90;3.20;;;19.60;46.20;;;;;;5035729;28;20538;-84
2020/12/23 11:12:48;;;;;;;4.63;2.97;;;19.90;45.50;;;;;;5035453;28;20500;-84
2020/12/23 11:15:15;;;;;;;8.47;3.10;;;20.10;45.00;;;;;;5038958;28;20515;-84
2020/12/23 11:17:42;;;;;;;4.90;3.30;;;20.20;44.70;;;;;;5038502;28;20480;-84
2020/12/23 11:20:08;;;;;;;4.97;2.97;;;20.10;45.10;;;;;;5039589;28;20523;-84
2020/12/23 11:22:34;;;;;;;7.63;3.77;;;19.90;45.80;;;;;;5038823;28;20842;-85
2020/12/23 11:25:02;;;;;;;4.87;3.23;;;20.10;45.60;;;;;;5039955;28;20941;-85
2020/12/23 11:27:28;;;;;;;7.30;3.70;;;20.30;45.50;;;;;;5038505;28;20468;-85
2020/12/23 11:29:55;;;;;;;4.63;3.70;;;20.30;44.80;;;;;;5037112;28;20571;-85
2020/12/23 11:32:21;;;;;;;4.77;3.50;;;20.20;44.70;;;;;;5037122;28;20473;-85
2020/12/23 11:34:48;;;;;;;5.33;3.43;;;20.20;45.20;;;;;;5037413;28;20449;-85
2020/12/23 11:37:14;;;;;;;10.13;3.53;;;20.10;45.20;;;;;;5036788;28;20476;-85
2020/12/23 11:39:41;;;;;;;5.60;3.70;;;20.10;44.60;;;;;;5036744;28;20465;-85
2020/12/23 11:42:08;;;;;;;6.70;4.13;;;20.20;44.70;;;;;;5036571;28;20433;-85
2020/12/23 11:44:34;;;;;;;8.20;4.73;;;20.20;44.70;;;;;;5036429;28;20452;-85
2020/12/23 11:47:01;;;;;;;15.93;5.80;;;20.30;44.80;;;;;;5036434;28;20812;-85
2020/12/23 11:49:27;;;;;;;13.47;4.57;;;20.30;44.80;;;;;;5037283;28;20519;-85
2020/12/23 11:51:54;;;;;;;9.50;4.70;;;20.10;44.90;;;;;;5036222;28;20442;-85
2020/12/23 11:54:21;;;;;;;6.43;4.30;;;20.20;44.80;;;;;;5036529;28;20449;-85
2020/12/23 11:56:49;;;;;;;6.00;4.20;;;20.10;45.20;;;;;;5035985;28;20441;-85
2020/12/23 11:59:17;;;;;;;6.53;3.70;;;20.10;44.70;;;;;;5036315;28;20511;-85
2020/12/23 12:01:43;;;;;;;4.20;3.20;;;20.10;44.80;;;;;;5037666;28;20500;-85
2020/12/23 12:04:11;;;;;;;6.60;3.07;;;20.10;44.90;;;;;;5044280;28;20445;-84
2020/12/23 12:06:38;;;;;;;4.23;2.93;;;20.20;44.70;;;;;;5040811;28;20499;-84
2020/12/23 12:09:04;;;;;;;7.03;3.17;;;20.00;44.50;;;;;;5036677;28;20459;-85
2020/12/23 12:11:31;;;;;;;3.67;3.10;;;20.00;44.50;;;;;;5036447;28;20536;-84
2020/12/23 12:13:57;;;;;;;3.40;2.50;;;20.20;44.10;;;;;;5036083;28;20477;-84
2020/12/23 12:16:24;;;;;;;4.93;2.90;;;19.90;43.60;;;;;;5036345;28;20881;-84
2020/12/23 12:18:51;;;;;;;22.03;3.13;;;20.10;43.90;;;;;;5036395;28;20519;-85
2020/12/23 12:21:17;;;;;;;7.80;3.10;;;20.10;43.80;;;;;;5036552;28;20525;-85
2020/12/23 12:23:44;;;;;;;6.07;3.43;;;20.10;43.60;;;;;;5035537;28;20535;-85
2020/12/23 12:26:10;;;;;;;6.00;3.60;;;20.00;44.50;;;;;;5034716;28;20453;-84
2020/12/23 12:28:37;;;;;;;4.70;3.70;;;20.20;44.10;;;;;;5036212;28;20982;-85
2020/12/23 12:31:03;;;;;;;6.40;4.20;;;20.20;43.80;;;;;;5038059;28;20485;-85
2020/12/23 12:33:31;;;;;;;5.43;4.00;;;20.10;43.90;;;;;;5039141;28;20453;-85
2020/12/23 12:35:58;;;;;;;8.10;5.27;;;20.20;43.80;;;;;;5036162;28;20449;-85
2020/12/23 12:38:25;;;;;;;15.63;5.03;;;20.40;43.40;;;;;;5035893;28;20977;-85
2020/12/23 12:40:51;;;;;;;6.77;4.47;;;20.40;43.10;;;;;;5035733;28;20445;-84
2020/12/23 12:43:18;;;;;;;10.17;6.70;;;20.30;43.50;;;;;;5035949;28;20453;-84
2020/12/23 12:45:45;;;;;;;7.30;4.30;;;20.20;43.70;;;;;;5035468;28;20441;-84
2020/12/23 12:48:12;;;;;;;6.70;4.40;;;20.40;43.20;;;;;;5035434;28;20449;-84
2020/12/23 12:50:39;;;;;;;12.67;5.57;;;20.30;43.60;;;;;;5035889;28;20476;-84